Münster Osnabrück Airport

EDDG · North Rhine-Westphalia, 德国

罗盘
风向 的 风向 200° Münster Osnabrück Airport 7/25
风: 8 kt, 3 beaufort

5 kt

6 kt
改变
0 1.000 2.000 3.000 4.000 5.000
N/A
METAR ETWM 070920Z AUTO 20008KT //// // ////// 14/08 Q1022 ///

METAR Münster Osnabrück Airport - EDDG/FMO

Münster Osnabrück Airport是Münster,德国中的中型机场。 该机场有一条跑道: 7/25. 该领域的国际民航组织标志是EDDG 它的国际航空运输协会代码是FMO.

这份报告是针对2022年10月7日 11:20, 当地时间在Meppen Air Base进行的。

机场观察

风向为200°,速度为8 kt。

温度和风寒是14 °C。 露点为8 °C,相对湿度为67%。 海平面上的气压为1022 hPa (QNH)。

白天

今天,太阳从07:40升起,在18:53降落。 这适用于Münster Osnabrück Airport,世界夏令时可能有所不同。 当地时间与世界标准时间之间的时差为+2 小时。 夏令时目前正在进行中。

公司介绍

我们没有关于这个机场的公司信息。

体会

到Vliegles.nl去找飞行课程,跳伞和其他飞行体验。 浏览页面,了解Münster Osnabrück Airport附近所有可用的活动。 你也可以使用搜索功能来寻找你所在地附近的特定飞行课程、跳伞或其他飞行体验。

跑道

Id 标题 侧风 逆风 侧风 %
7/25 071°-251° 6 kt 5 kt 78 %

逆风成分最大的方向会被突出显示,并用于横风计算。 这并不一定意味着这个方向在使用。

乌云

0 ft

温度 & 天气

温度 14 °C
露点 8 °C
相对湿度 67%
Kp-index 2 (0-9)

白天

日出
07:42
中午
13:18
日落
18:54 (6h 43m)

小工具

你想在你的网站上有一个关于Münster Osnabrück Airport的当前航空天气(METAR)的小部件吗?

</> 显示HTML代码

我们和第三方通过cookies跟踪您在我们网站上的上网行为。如果您继续,我们认为您同意我们的cookie政策。 了解更多